Thunder radar more information blitzortung!


Radar de pluja more information rain snow radar


Visita la nostra xarxa de llocs de meteo:

Template documentation
and downloads

And another site



No particular awareness of the weather is required.    There are no Weather-warnings

Pagina Historial Weather Underground text

Diari Resum Novembre 9, 2017 Unitats:  Mètric    Imperial   Tant
« Previous Dia
SegĂźent Dia »
Diari Setmana Mensual Anual Personalitzada
  Maxima: Minima: Media:
Temperatura: 14.1 °C 3.7 °C 8.9 °C
Punt de rosada: 3.6 °C -2.5 °C 0.9 °C
Humitat: 70 % 47 % 58 %
Wind Speed: 13.0 km/h 0.0 km/h 3.3 km/h
RĂ fegues de vent: 13.0 km/h - -
Vent:- - ESE
Pression baro: 1026.0 hPa 1021.9 hPa -
Precipitacions: 0.0 mm    
Historical Graphs
 
 
Dades de taula per Novembre 9, 2017
Temps Temperatura Punt de rosada Pression baro Vent Wind Speed RĂ fegues de vent Humitat Rainfall Rate (Hourly)
00:04 7.9 °C -0.6 °C 1022.9 hPa WSW 5.6 km/h 5.6 km/h 55 % 0.0 mm
00:05 3.9 °C -2.5 °C 1023.9 hPa NW 1.6 km/h 4.8 km/h 63 % 0.0 mm
00:15 3.9 °C -2.3 °C 1023.9 hPa NW 1.6 km/h 4.8 km/h 64 % 0.0 mm
00:25 4.0 °C -2.4 °C 1023.9 hPa North 1.6 km/h 4.8 km/h 63 % 0.0 mm
00:35 4.0 °C -2.2 °C 1023.9 hPa NNE 1.6 km/h 4.8 km/h 64 % 0.0 mm
00:45 4.0 °C -2.4 °C 1022.9 hPa North 1.6 km/h 3.2 km/h 63 % 0.0 mm
00:55 3.9 °C -2.3 °C 1022.9 hPa NW 1.6 km/h 3.2 km/h 64 % 0.0 mm
01:05 3.8 °C -2.4 °C 1022.9 hPa Calm   1.6 km/h 64 % 0.0 mm
01:15 3.7 °C -2.5 °C 1022.9 hPa SW 1.6 km/h 1.6 km/h 64 % 0.0 mm
01:25 3.7 °C -2.5 °C 1022.9 hPa WSW 1.6 km/h 3.2 km/h 64 % 0.0 mm
01:35 3.7 °C -2.5 °C 1022.9 hPa West 1.6 km/h 1.6 km/h 64 % 0.0 mm
01:45 3.7 °C -2.3 °C 1022.9 hPa WNW 1.6 km/h   65 % 0.0 mm
01:55 4.0 °C -2.0 °C 1023.9 hPa NW 1.6 km/h 1.6 km/h 65 % 0.0 mm
02:05 4.5 °C -1.5 °C 1023.9 hPa NNE 1.6 km/h 3.2 km/h 65 % 0.0 mm
02:15 4.8 °C -1.4 °C 1023.9 hPa NE 1.6 km/h 4.8 km/h 64 % 0.0 mm
02:25 5.0 °C -1.3 °C 1023.9 hPa NE 1.6 km/h 3.2 km/h 64 % 0.0 mm
02:35 5.2 °C -1.3 °C 1023.9 hPa NNE 1.6 km/h 6.4 km/h 63 % 0.0 mm
02:45 5.5 °C -1.0 °C 1023.9 hPa NNE 3.2 km/h 8.0 km/h 63 % 0.0 mm
02:55 5.8 °C -0.7 °C 1022.9 hPa NNE 3.2 km/h 6.4 km/h 63 % 0.0 mm
03:05 6.1 °C -0.7 °C 1022.9 hPa NE 8.0 km/h 9.7 km/h 62 % 0.0 mm
03:15 6.4 °C -0.3 °C 1023.9 hPa NE 4.8 km/h 6.4 km/h 62 % 0.0 mm
03:35 7.5 °C 0.4 °C 1023.9 hPa NE 3.2 km/h 4.8 km/h 61 % 0.0 mm
03:45 8.0 °C 0.7 °C 1023.9 hPa NNE 1.6 km/h 4.8 km/h 60 % 0.0 mm
03:55 7.8 °C 0.3 °C 1023.9 hPa NNE 4.8 km/h 6.4 km/h 59 % 0.0 mm
04:05 7.9 °C 0.4 °C 1023.9 hPa NE 4.8 km/h 8.0 km/h 59 % 0.0 mm
04:15 8.3 °C 0.7 °C 1023.9 hPa ENE 3.2 km/h 4.8 km/h 59 % 0.0 mm
04:25 8.4 °C 0.6 °C 1023.9 hPa NE 3.2 km/h 9.7 km/h 58 % 0.0 mm
04:35 8.5 °C 0.4 °C 1023.9 hPa NNE 4.8 km/h 9.7 km/h 57 % 0.0 mm
04:45 9.0 °C 1.2 °C 1023.9 hPa NNE 1.6 km/h 6.4 km/h 58 % 0.0 mm
04:50 8.8 °C 0.7 °C 1023.9 hPa NNE 4.8 km/h 6.4 km/h 57 % 0.0 mm
10:49 8.8 °C 0.7 °C 1023.9 hPa NE 5.6 km/h 7.6 km/h 57 % 0.0 mm
10:50 8.9 °C 0.8 °C 1023.9 hPa North 5.6 km/h 5.6 km/h 57 % 0.0 mm
10:55 9.2 °C 1.1 °C 1023.9 hPa North 5.6 km/h 5.6 km/h 57 % 0.0 mm
11:00 9.5 °C 1.4 °C 1023.9 hPa WNW 6.1 km/h 6.1 km/h 57 % 0.0 mm
11:05 9.6 °C 1.5 °C 1023.9 hPa NNE 7.4 km/h 7.4 km/h 57 % 0.0 mm
11:10 9.3 °C 0.9 °C 1023.9 hPa ESE 5.6 km/h 5.6 km/h 56 % 0.0 mm
11:15 9.4 °C 1.1 °C 1023.9 hPa NE 5.6 km/h 5.6 km/h 56 % 0.0 mm
11:20 9.9 °C 1.5 °C 1023.9 hPa NE 3.7 km/h 3.7 km/h 56 % 0.0 mm
11:25 9.8 °C 1.2 °C 1023.9 hPa East 7.6 km/h 7.6 km/h 55 % 0.0 mm
11:30 9.9 °C 1.3 °C 1023.9 hPa NE 7.4 km/h 7.4 km/h 55 % 0.0 mm
11:35 9.9 °C 1.3 °C 1023.9 hPa WNW 5.6 km/h 5.6 km/h 55 % 0.0 mm
11:40 9.8 °C 1.2 °C 1023.9 hPa NNE 5.6 km/h 5.6 km/h 55 % 0.0 mm
11:45 10.0 °C 1.4 °C 1023.9 hPa ENE 7.4 km/h 7.4 km/h 55 % 0.0 mm
11:50 10.4 °C 1.7 °C 1023.9 hPa NE 5.0 km/h 5.0 km/h 55 % 0.0 mm
11:55 10.2 °C 1.3 °C 1023.9 hPa ESE 5.6 km/h 5.6 km/h 54 % 0.0 mm
12:00 10.3 °C 1.4 °C 1023.9 hPa East 5.6 km/h 5.6 km/h 54 % 0.0 mm
12:05 10.6 °C 1.7 °C 1023.9 hPa North 5.3 km/h 5.3 km/h 54 % 0.0 mm
12:10 11.1 °C 2.4 °C 1023.9 hPa NW 3.9 km/h 3.9 km/h 55 % 0.0 mm
12:15 11.1 °C 2.1 °C 1023.9 hPa WSW 4.7 km/h 4.7 km/h 54 % 0.0 mm
12:20 11.1 °C 2.1 °C 1022.9 hPa NNE 9.3 km/h 9.3 km/h 54 % 0.0 mm
12:25 11.2 °C 2.2 °C 1022.9 hPa ENE 5.6 km/h 5.6 km/h 54 % 0.0 mm
12:30 11.2 °C 2.2 °C 1022.9 hPa NNE 9.3 km/h 9.3 km/h 54 % 0.0 mm
12:35 11.5 °C 2.5 °C 1022.9 hPa ESE 3.9 km/h   54 % 0.0 mm
12:40 11.9 °C 2.6 °C 1022.9 hPa ESE 5.6 km/h 5.6 km/h 53 % 0.0 mm
12:45 12.0 °C 2.7 °C 1022.9 hPa ENE 3.9 km/h 4.7 km/h 53 % 0.0 mm
12:50 12.0 °C 2.7 °C 1022.9 hPa ESE 5.6 km/h 5.6 km/h 53 % 0.0 mm
12:55 12.0 °C 2.7 °C 1022.9 hPa ENE 5.8 km/h 5.8 km/h 53 % 0.0 mm
13:00 11.8 °C 2.3 °C 1022.9 hPa SSE 3.7 km/h 3.7 km/h 52 % 0.0 mm
13:01 12.1 °C 2.8 °C 1022.9 hPa ESE 3.7 km/h 3.7 km/h 53 % 0.0 mm
13:06 12.3 °C 3.0 °C 1021.9 hPa NNE 5.3 km/h 5.3 km/h 53 % 0.0 mm
13:11 12.3 °C 3.0 °C 1021.9 hPa ESE 3.7 km/h   53 % 0.0 mm
13:16 12.1 °C 2.6 °C 1021.9 hPa ENE 7.4 km/h 7.4 km/h 52 % 0.0 mm
13:21 12.3 °C 2.7 °C 1021.9 hPa ESE 5.6 km/h 5.6 km/h 52 % 0.0 mm
13:26 12.5 °C 2.9 °C 1021.9 hPa ENE 5.6 km/h 5.6 km/h 52 % 0.0 mm
13:31 12.4 °C 2.8 °C 1021.9 hPa ESE 5.8 km/h 5.8 km/h 52 % 0.0 mm
13:33 12.3 °C 2.7 °C 1021.9 hPa ESE 5.6 km/h 5.6 km/h 52 % 0.0 mm
13:38 12.5 °C 2.9 °C 1021.9 hPa ESE 3.7 km/h 3.7 km/h 52 % 0.0 mm
13:43 12.8 °C 3.2 °C 1021.9 hPa East 4.2 km/h 4.2 km/h 52 % 0.0 mm
13:48 12.9 °C 3.3 °C 1021.9 hPa NNE 4.7 km/h 4.7 km/h 52 % 0.0 mm
13:53 13.1 °C 3.4 °C 1021.9 hPa SW 3.7 km/h 3.7 km/h 52 % 0.0 mm
13:58 13.2 °C 3.6 °C 1021.9 hPa East 4.7 km/h 4.7 km/h 52 % 0.0 mm
14:03 13.3 °C 3.4 °C 1021.9 hPa ESE 5.6 km/h 5.6 km/h 51 % 0.0 mm
14:08 13.1 °C 3.2 °C 1021.9 hPa East 9.3 km/h 9.3 km/h 51 % 0.0 mm
14:13 13.1 °C 3.2 °C 1021.9 hPa NNE 5.6 km/h 5.6 km/h 51 % 0.0 mm
14:18 13.1 °C 2.9 °C 1021.9 hPa ESE 9.3 km/h 9.3 km/h 50 % 0.0 mm
14:23 13.1 °C 2.9 °C 1021.9 hPa East 6.9 km/h 6.9 km/h 50 % 0.0 mm
14:28 13.1 °C 2.9 °C 1021.9 hPa ESE 5.6 km/h 5.6 km/h 50 % 0.0 mm
14:33 13.1 °C 2.9 °C 1021.9 hPa NNE 5.8 km/h 5.8 km/h 50 % 0.0 mm
14:38 13.4 °C 3.4 °C 1021.9 hPa NE 7.4 km/h 7.4 km/h 51 % 0.0 mm
14:43 13.5 °C 3.3 °C 1021.9 hPa East 9.3 km/h 9.3 km/h 50 % 0.0 mm
14:48 13.4 °C 3.2 °C 1021.9 hPa East 7.4 km/h 7.4 km/h 50 % 0.0 mm
14:53 13.6 °C 3.4 °C 1021.9 hPa ESE 7.4 km/h 7.4 km/h 50 % 0.0 mm
14:58 13.6 °C 3.4 °C 1021.9 hPa ENE 11.1 km/h 11.1 km/h 50 % 0.0 mm
15:03 13.6 °C 3.4 °C 1021.9 hPa NE 13.0 km/h 13.0 km/h 50 % 0.0 mm
15:08 13.7 °C 3.4 °C 1021.9 hPa NE 7.4 km/h 7.4 km/h 50 % 0.0 mm
15:13 13.9 °C 3.3 °C 1021.9 hPa ENE 7.4 km/h 7.4 km/h 49 % 0.0 mm
15:18 13.7 °C 3.2 °C 1021.9 hPa ESE 7.4 km/h 7.4 km/h 49 % 0.0 mm
15:23 13.8 °C 2.9 °C 1021.9 hPa WSW 5.6 km/h 5.6 km/h 48 % 0.0 mm
15:28 14.1 °C 3.2 °C 1021.9 hPa SSE 3.7 km/h 3.7 km/h 48 % 0.0 mm
15:33 13.9 °C 3.1 °C 1021.9 hPa SE 7.4 km/h 7.4 km/h 48 % 0.0 mm
15:38 13.6 °C 2.8 °C 1021.9 hPa ESE 9.3 km/h 9.3 km/h 48 % 0.0 mm
15:43 13.7 °C 2.9 °C 1021.9 hPa ESE 9.3 km/h 9.3 km/h 48 % 0.0 mm
15:48 13.6 °C 2.5 °C 1021.9 hPa ESE 4.2 km/h 4.2 km/h 47 % 0.0 mm
15:53 13.7 °C 2.6 °C 1021.9 hPa ESE 6.4 km/h 6.4 km/h 47 % 0.0 mm
15:58 13.9 °C 3.1 °C 1021.9 hPa East 4.7 km/h 4.7 km/h 48 % 0.0 mm
16:03 13.9 °C 2.8 °C 1021.9 hPa ESE 5.6 km/h 5.6 km/h 47 % 0.0 mm
16:08 13.7 °C 2.6 °C 1021.9 hPa SSE 3.7 km/h 3.7 km/h 47 % 0.0 mm
16:13 13.9 °C 3.1 °C 1021.9 hPa WSW 3.7 km/h 3.7 km/h 48 % 0.0 mm
16:18 13.9 °C 3.1 °C 1021.9 hPa WSW 5.6 km/h 5.6 km/h 48 % 0.0 mm
16:23 13.9 °C 3.1 °C 1021.9 hPa Calm     48 % 0.0 mm
16:28 13.8 °C 2.7 °C 1021.9 hPa SE 2.6 km/h   47 % 0.0 mm
16:33 13.5 °C 2.4 °C 1021.9 hPa ESE 5.6 km/h 5.6 km/h 47 % 0.0 mm
16:38 13.2 °C 2.4 °C 1021.9 hPa SE 5.6 km/h 5.6 km/h 48 % 0.0 mm
16:43 13.0 °C 2.2 °C 1021.9 hPa ESE 6.9 km/h 6.9 km/h 48 % 0.0 mm
16:48 12.8 °C 2.1 °C 1021.9 hPa SE 5.6 km/h 5.6 km/h 48 % 0.0 mm
16:53 12.8 °C 2.3 °C 1022.9 hPa South 5.6 km/h 5.6 km/h 49 % 0.0 mm
16:58 12.7 °C 2.2 °C 1022.9 hPa NNE 3.7 km/h 3.7 km/h 49 % 0.0 mm
17:03 12.6 °C 2.2 °C 1022.9 hPa NE 2.3 km/h   49 % 0.0 mm
17:08 12.4 °C 2.3 °C 1022.9 hPa NNE 1.9 km/h 1.9 km/h 50 % 0.0 mm
17:13 12.3 °C 2.2 °C 1022.9 hPa Calm     50 % 0.0 mm
17:18 12.2 °C 2.1 °C 1022.9 hPa Calm     50 % 0.0 mm
17:23 12.1 °C 2.0 °C 1022.9 hPa NNE 1.9 km/h   50 % 0.0 mm
17:28 12.0 °C 1.9 °C 1022.9 hPa NNW 3.7 km/h 3.7 km/h 50 % 0.0 mm
17:33 11.8 °C 1.7 °C 1022.9 hPa NNW 1.9 km/h   50 % 0.0 mm
17:38 11.6 °C 1.5 °C 1022.9 hPa Calm     50 % 0.0 mm
17:43 11.6 °C 1.5 °C 1022.9 hPa NE 2.6 km/h 2.6 km/h 50 % 0.0 mm
17:48 11.3 °C 1.5 °C 1022.9 hPa NNE 4.2 km/h 4.2 km/h 51 % 0.0 mm
17:53 11.1 °C 1.3 °C 1022.9 hPa NNE 3.9 km/h 3.9 km/h 51 % 0.0 mm
17:58 11.0 °C 1.2 °C 1022.9 hPa NNE 5.6 km/h 5.6 km/h 51 % 0.0 mm
18:03 11.2 °C 1.4 °C 1022.9 hPa NNE 7.4 km/h 7.4 km/h 51 % 0.0 mm
18:08 11.1 °C 1.3 °C 1022.9 hPa NNE 7.4 km/h 7.4 km/h 51 % 0.0 mm
18:13 11.0 °C 1.2 °C 1022.9 hPa NE 5.6 km/h 5.6 km/h 51 % 0.0 mm
18:15 5.1 °C -0.3 °C 1026.0 hPa Calm   4.8 km/h 68 % 0.0 mm
18:18 10.9 °C 1.4 °C 1022.9 hPa NNE 3.7 km/h 3.7 km/h 52 % 0.0 mm
18:23 10.8 °C 1.3 °C 1022.9 hPa Calm     52 % 0.0 mm
18:25 5.0 °C -0.2 °C 1026.0 hPa South 1.6 km/h 1.6 km/h 69 % 0.0 mm
18:28 10.6 °C 1.2 °C 1022.9 hPa NNW 3.5 km/h 3.5 km/h 52 % 0.0 mm
18:33 10.4 °C 0.9 °C 1022.9 hPa NNE 3.7 km/h 3.7 km/h 52 % 0.0 mm
18:35 5.0 °C -0.2 °C 1026.0 hPa Calm   1.6 km/h 69 % 0.0 mm
18:38 10.3 °C 0.9 °C 1022.9 hPa NE 3.7 km/h 3.7 km/h 52 % 0.0 mm
18:43 10.1 °C 0.7 °C 1022.9 hPa NNE 5.6 km/h 5.6 km/h 52 % 0.0 mm
18:45 5.1 °C -0.1 °C 1026.0 hPa Calm     69 % 0.0 mm
18:48 10.0 °C 0.8 °C 1022.9 hPa ENE 5.6 km/h 5.6 km/h 53 % 0.0 mm
18:53 10.0 °C 0.8 °C 1023.9 hPa NNE 3.7 km/h 3.7 km/h 53 % 0.0 mm
18:55 4.9 °C -0.1 °C 1026.0 hPa Calm     70 % 0.0 mm
18:58 9.9 °C 0.8 °C 1023.9 hPa NNW 1.9 km/h   53 % 0.0 mm
19:03 9.7 °C 0.6 °C 1023.9 hPa NNW 1.9 km/h   53 % 0.0 mm
19:05 4.8 °C -0.4 °C 1026.0 hPa NNW 1.6 km/h 3.2 km/h 69 % 0.0 mm
19:08 9.6 °C 0.5 °C 1023.9 hPa NNE 3.7 km/h   53 % 0.0 mm
19:13 9.4 °C 0.6 °C 1023.9 hPa NNE 3.9 km/h 3.9 km/h 54 % 0.0 mm
19:15 4.7 °C -0.3 °C 1026.0 hPa Calm   3.2 km/h 70 % 0.0 mm
19:18 9.3 °C 0.4 °C 1023.9 hPa NNE 1.9 km/h 1.9 km/h 54 % 0.0 mm
19:23 9.2 °C 0.4 °C 1023.9 hPa North 1.9 km/h   54 % 0.0 mm
19:25 4.5 °C -0.5 °C 1026.0 hPa Calm   1.6 km/h 70 % 0.0 mm
19:28 9.1 °C 0.3 °C 1023.9 hPa NNW 1.9 km/h   54 % 0.0 mm
19:33 9.0 °C 0.4 °C 1023.9 hPa NNW 1.9 km/h 1.9 km/h 55 % 0.0 mm
19:35 4.3 °C -0.9 °C 1026.0 hPa Calm   3.2 km/h 69 % 0.0 mm
19:38 9.0 °C 0.4 °C 1022.9 hPa NNW 1.9 km/h   55 % 0.0 mm
19:43 8.9 °C 0.3 °C 1022.9 hPa Calm     55 % 0.0 mm
19:45 4.4 °C -0.8 °C 1026.0 hPa SSW 1.6 km/h 3.2 km/h 69 % 0.0 mm
19:48 8.9 °C 0.3 °C 1022.9 hPa NE 3.7 km/h 3.7 km/h 55 % 0.0 mm
19:53 8.8 °C 0.5 °C 1022.9 hPa Calm     56 % 0.0 mm
19:55 4.3 °C -0.7 °C 1026.0 hPa Calm   1.6 km/h 70 % 0.0 mm
19:58 8.8 °C 0.5 °C 1022.9 hPa North 1.9 km/h   56 % 0.0 mm
20:03 8.7 °C 0.4 °C 1022.9 hPa Calm     56 % 0.0 mm
20:05 4.4 °C -0.6 °C 1026.0 hPa NNE 1.6 km/h 3.2 km/h 70 % 0.0 mm
20:08 8.7 °C 0.4 °C 1023.9 hPa Calm     56 % 0.0 mm
20:13 8.5 °C 0.4 °C 1023.9 hPa NNW 1.9 km/h   57 % 0.0 mm
20:15 4.5 °C -0.5 °C 1024.9 hPa Calm   1.6 km/h 70 % 0.0 mm
20:18 8.5 °C 0.4 °C 1023.9 hPa NNE 2.6 km/h   57 % 0.0 mm
20:23 8.5 °C 0.4 °C 1023.9 hPa Calm     57 % 0.0 mm
20:25 4.5 °C -0.5 °C 1024.9 hPa Calm   1.6 km/h 70 % 0.0 mm
20:28 8.5 °C 0.4 °C 1023.9 hPa NNE 3.7 km/h 3.7 km/h 57 % 0.0 mm
20:33 8.6 °C 0.8 °C 1023.9 hPa Calm     58 % 0.0 mm
20:35 4.5 °C -0.5 °C 1024.9 hPa NW 1.6 km/h 3.2 km/h 70 % 0.0 mm
20:38 8.6 °C 0.8 °C 1023.9 hPa NE 1.9 km/h 1.9 km/h 58 % 0.0 mm
20:43 8.5 °C 0.7 °C 1023.9 hPa Calm     58 % 0.0 mm
20:45 4.5 °C -0.7 °C 1026.0 hPa North 1.6 km/h 3.2 km/h 69 % 0.0 mm
20:48 8.3 °C 0.7 °C 1023.9 hPa WNW 1.9 km/h   59 % 0.0 mm
20:53 8.2 °C 0.7 °C 1023.9 hPa Calm     59 % 0.0 mm
20:55 4.7 °C -0.5 °C 1026.0 hPa NNE 1.6 km/h 1.6 km/h 69 % 0.0 mm
20:58 8.1 °C 0.6 °C 1023.9 hPa Calm     59 % 0.0 mm
21:03 8.0 °C 0.7 °C 1023.9 hPa Calm     60 % 0.0 mm
21:05 4.7 °C -0.5 °C 1026.0 hPa North 1.6 km/h 3.2 km/h 69 % 0.0 mm
21:08 7.9 °C 0.6 °C 1023.9 hPa WNW 1.9 km/h 1.9 km/h 60 % 0.0 mm
21:13 7.9 °C 0.6 °C 1023.9 hPa WNW 3.7 km/h 3.7 km/h 60 % 0.0 mm
21:15 4.6 °C -0.6 °C 1024.9 hPa Calm   1.6 km/h 69 % 0.0 mm
21:18 7.9 °C 0.6 °C 1023.9 hPa Calm     60 % 0.0 mm
21:23 7.9 °C 0.6 °C 1023.9 hPa Calm     60 % 0.0 mm
21:25 4.6 °C -0.8 °C 1024.9 hPa Calm   3.2 km/h 68 % 0.0 mm
21:28 7.8 °C 0.7 °C 1023.9 hPa Calm     61 % 0.0 mm
21:33 8.0 °C 0.9 °C 1023.9 hPa ESE 5.6 km/h 5.6 km/h 61 % 0.0 mm
21:35 4.6 °C -0.8 °C 1024.9 hPa West 1.6 km/h 3.2 km/h 68 % 0.0 mm
21:38 8.0 °C 1.2 °C 1023.9 hPa East 1.9 km/h   62 % 0.0 mm
21:43 8.0 °C 1.2 °C 1023.9 hPa ESE 3.7 km/h 3.7 km/h 62 % 0.0 mm
21:45 4.5 °C -0.9 °C 1024.9 hPa West 1.6 km/h 1.6 km/h 68 % 0.0 mm
21:48 7.9 °C 1.1 °C 1023.9 hPa Calm     62 % 0.0 mm
21:53 7.9 °C 1.1 °C 1024.9 hPa Calm     62 % 0.0 mm
21:58 7.8 °C 0.9 °C 1024.9 hPa Calm     62 % 0.0 mm
22:03 7.6 °C 0.6 °C 1024.9 hPa Calm     61 % 0.0 mm
22:05 4.5 °C -1.1 °C 1024.9 hPa West 3.2 km/h 4.8 km/h 67 % 0.0 mm
22:08 7.6 °C 0.6 °C 1024.9 hPa Calm     61 % 0.0 mm
22:13 7.5 °C 0.7 °C 1024.9 hPa Calm     62 % 0.0 mm
22:15 4.4 °C -1.0 °C 1026.0 hPa West 1.6 km/h 3.2 km/h 68 % 0.0 mm
22:18 7.5 °C 0.7 °C 1024.9 hPa Calm     62 % 0.0 mm
22:23 7.4 °C 0.8 °C 1024.9 hPa Calm     63 % 0.0 mm
22:24 7.4 °C 0.8 °C 1024.9 hPa Calm     63 % 0.0 mm
22:25 4.5 °C -0.9 °C 1026.0 hPa NNW 1.6 km/h 3.2 km/h 68 % 0.0 mm
22:29 7.3 °C 0.7 °C 1024.9 hPa Calm     63 % 0.0 mm
22:34 7.2 °C 0.6 °C 1024.9 hPa ENE 1.9 km/h 1.9 km/h 63 % 0.0 mm
22:35 4.4 °C -1.0 °C 1026.0 hPa Calm   3.2 km/h 68 % 0.0 mm
22:39 7.0 °C 0.4 °C 1026.0 hPa NNE 1.9 km/h 1.9 km/h 63 % 0.0 mm
22:44 6.8 °C 0.4 °C 1026.0 hPa Calm     64 % 0.0 mm
22:45 4.4 °C -1.0 °C 1026.0 hPa Calm   1.6 km/h 68 % 0.0 mm
22:49 6.6 °C 0.3 °C 1026.0 hPa ESE 3.7 km/h 3.7 km/h 64 % 0.0 mm
22:54 6.5 °C 0.2 °C 1024.9 hPa South 1.9 km/h 1.9 km/h 64 % 0.0 mm
22:55 4.4 °C -1.0 °C 1026.0 hPa NNW 3.2 km/h 4.8 km/h 68 % 0.0 mm
22:59 6.4 °C 0.1 °C 1024.9 hPa Calm     64 % 0.0 mm
23:04 6.2 °C 0.1 °C 1024.9 hPa Calm     65 % 0.0 mm
23:05 4.4 °C -1.0 °C 1026.0 hPa NNE 1.6 km/h 3.2 km/h 68 % 0.0 mm
23:09 6.0 °C -0.1 °C 1026.0 hPa Calm     65 % 0.0 mm
23:14 5.8 °C -0.5 °C 1026.0 hPa SW 3.9 km/h 3.9 km/h 64 % 0.0 mm
23:15 4.4 °C -1.0 °C 1026.0 hPa NE 3.2 km/h 4.8 km/h 68 % 0.0 mm
23:19 5.7 °C -0.6 °C 1026.0 hPa SW 3.9 km/h 3.9 km/h 64 % 0.0 mm
23:24 5.5 °C -0.8 °C 1026.0 hPa SW 3.7 km/h 3.7 km/h 64 % 0.0 mm
23:25 4.3 °C -1.1 °C 1026.0 hPa NNE 1.6 km/h 6.4 km/h 68 % 0.0 mm
23:29 5.5 °C -0.6 °C 1026.0 hPa SSW 3.7 km/h 3.7 km/h 65 % 0.0 mm
23:34 5.4 °C -0.4 °C 1026.0 hPa Calm     66 % 0.0 mm
23:35 4.4 °C -1.0 °C 1026.0 hPa North 1.6 km/h 3.2 km/h 68 % 0.0 mm
23:39 5.3 °C -0.3 °C 1024.9 hPa ENE 3.7 km/h 3.7 km/h 67 % 0.0 mm
23:44 5.3 °C -0.3 °C 1024.9 hPa Calm     67 % 0.0 mm
23:45 4.4 °C -1.0 °C 1026.0 hPa NE 1.6 km/h 3.2 km/h 68 % 0.0 mm
23:49 5.3 °C -0.3 °C 1024.9 hPa Calm     67 % 0.0 mm
23:54 5.2 °C -0.2 °C 1026.0 hPa Calm     68 % 0.0 mm
23:55 4.4 °C -1.0 °C 1026.0 hPa NE 3.2 km/h 3.2 km/h 68 % 0.0 mm
23:59 5.2 °C -0.2 °C 1026.0 hPa Calm     68 % 0.0 mm
Meteo Sesrovires
Elogis d' Weather Underground - 3.75 mb

Guio original per  Jim McMurry - jmcmurry@mwt.net Adaptat per a la plantilla per  Wim van der Kuil - Leuven-Template.eu

Trobareu la nostra informacio del temps tambe a:

Weather Underground

AWEKAS